Time,TemperatureF,DewpointF,PressureIn,WindDirection,WindDirectionDegrees,WindSpeedMPH,WindSpeedGustMPH,Humidity,HourlyPrecipIn,Conditions,Clouds,dailyrainin,SoftwareType,DateUTC
2013-10-05 00:12:00,26.0,23.0,30.36,NNW,340,0.0,0.0,88,0.00,,,0.42,,2013-10-05 06:12:00,
2013-10-05 00:22:00,26.0,23.0,30.36,NNW,340,0.0,0.0,89,0.00,,,0.42,,2013-10-05 06:22:00,
2013-10-05 00:42:00,26.0,23.0,30.36,NNW,340,0.0,0.0,89,0.00,,,0.42,,2013-10-05 06:42:00,
2013-10-05 00:52:00,26.0,23.0,30.36,NNW,340,0.0,0.0,89,0.00,,,0.42,,2013-10-05 06:52:00,
2013-10-05 01:12:00,26.0,23.0,30.36,NNW,340,0.0,0.0,89,0.00,,,0.42,,2013-10-05 07:12:00,
2013-10-05 01:22:00,26.0,23.0,30.36,NNW,340,0.0,0.0,89,0.00,,,0.42,,2013-10-05 07:22:00,
2013-10-05 01:42:00,25.0,22.0,30.36,NNW,340,0.0,0.0,89,0.00,,,0.42,,2013-10-05 07:42:00,
2013-10-05 01:52:00,25.0,22.0,30.36,NNW,339,0.0,0.0,89,0.00,,,0.42,,2013-10-05 07:52:00,
2013-10-05 02:12:00,25.0,22.0,30.36,NNW,339,0.0,0.0,88,0.00,,,0.42,,2013-10-05 08:12:00,
2013-10-05 02:23:00,24.0,21.0,30.36,NNW,339,0.0,0.0,87,0.00,,,0.42,,2013-10-05 08:23:00,
2013-10-05 02:42:00,24.0,21.0,30.36,SSW,213,2.0,4.0,89,0.00,,,0.42,,2013-10-05 08:42:00,
2013-10-05 02:52:00,24.0,22.0,30.36,SSW,213,0.0,3.0,91,0.00,,,0.42,,2013-10-05 08:52:00,
2013-10-05 03:11:00,24.0,22.0,30.36,SSW,213,0.0,0.0,91,0.00,,,0.42,,2013-10-05 09:11:00,
2013-10-05 03:21:00,24.0,22.0,30.37,SSW,213,0.0,0.0,91,0.00,,,0.42,,2013-10-05 09:21:00,
2013-10-05 03:43:00,24.0,22.0,30.37,SSW,213,0.0,0.0,91,0.00,,,0.42,,2013-10-05 09:43:00,
2013-10-05 03:54:00,24.0,22.0,30.37,SSW,213,0.0,0.0,92,0.00,,,0.42,,2013-10-05 09:54:00,
2013-10-05 04:12:00,24.0,22.0,30.37,SSW,213,0.0,0.0,93,0.00,,,0.42,,2013-10-05 10:12:00,
2013-10-05 04:23:00,24.0,23.0,30.37,SSW,213,0.0,0.0,94,0.00,,,0.42,,2013-10-05 10:23:00,
2013-10-05 04:43:00,25.0,24.0,30.37,SW,214,0.0,0.0,94,0.00,,,0.42,,2013-10-05 10:43:00,
2013-10-05 04:53:00,25.0,24.0,30.38,SW,214,0.0,0.0,94,0.00,,,0.42,,2013-10-05 10:53:00,
2013-10-05 05:11:00,25.0,23.0,30.38,SSW,213,0.0,0.0,93,0.00,,,0.42,,2013-10-05 11:11:00,
2013-10-05 05:22:00,25.0,23.0,30.37,SW,214,0.0,0.0,92,0.00,,,0.42,,2013-10-05 11:22:00,
2013-10-05 05:42:00,25.0,23.0,30.37,SW,214,0.0,0.0,92,0.00,,,0.42,,2013-10-05 11:42:00,
2013-10-05 05:52:00,25.0,23.0,30.38,SW,214,0.0,0.0,92,0.00,,,0.42,,2013-10-05 11:52:00,
2013-10-05 06:12:00,25.0,23.0,30.38,SW,214,0.0,0.0,93,0.00,,,0.42,,2013-10-05 12:12:00,
2013-10-05 06:22:00,25.0,23.0,30.38,SW,214,0.0,0.0,92,0.00,,,0.42,,2013-10-05 12:22:00,
2013-10-05 06:42:00,25.0,22.0,30.37,SW,214,0.0,0.0,90,0.00,,,0.42,,2013-10-05 12:42:00,
2013-10-05 06:52:00,24.0,21.0,30.37,SW,214,0.0,0.0,89,0.00,,,0.42,,2013-10-05 12:52:00,
2013-10-05 07:12:00,23.0,20.0,30.37,SW,214,0.0,0.0,88,0.00,,,0.42,,2013-10-05 13:12:00,
2013-10-05 07:22:00,23.0,20.0,30.37,SW,214,0.0,0.0,88,0.00,,,0.42,,2013-10-05 13:22:00,
2013-10-05 07:42:00,22.0,19.0,30.37,SW,214,0.0,0.0,88,0.00,,,0.42,,2013-10-05 13:42:00,
2013-10-05 07:52:00,21.0,18.0,30.37,SW,214,0.0,2.0,87,0.00,,,0.42,,2013-10-05 13:52:00,
2013-10-05 08:11:00,21.0,19.0,30.38,WSW,255,0.0,3.0,90,0.00,,,0.42,,2013-10-05 14:11:00,
2013-10-05 08:22:00,23.0,21.0,30.39,NW,319,0.0,6.0,93,0.00,,,0.42,,2013-10-05 14:22:00,
2013-10-05 08:42:00,24.0,23.0,30.40,NNW,340,1.0,4.0,94,0.00,,,0.42,,2013-10-05 14:42:00,
2013-10-05 08:52:00,24.0,23.0,30.40,North,355,0.0,4.0,94,0.00,,,0.42,,2013-10-05 14:52:00,
2013-10-05 09:12:00,25.0,23.0,30.40,North,5,1.0,6.0,93,0.00,,,0.42,,2013-10-05 15:12:00,
2013-10-05 09:21:00,26.0,24.0,30.40,North,355,1.0,5.0,91,0.00,,,0.42,,2013-10-05 15:21:00,
2013-10-05 09:44:00,27.0,24.0,30.40,WNW,297,3.0,7.0,89,0.00,,,0.42,,2013-10-05 15:44:00,
2013-10-05 09:53:00,28.0,25.0,30.40,NNE,32,0.0,5.0,89,0.00,,,0.42,,2013-10-05 15:53:00,
2013-10-05 10:13:00,30.0,26.0,30.40,NNE,14,0.0,7.0,85,0.00,,,0.42,,2013-10-05 16:13:00,
2013-10-05 10:23:00,32.0,26.0,30.40,NNW,342,3.0,6.0,79,0.00,,,0.42,,2013-10-05 16:23:00,
2013-10-05 10:43:00,33.0,27.0,30.41,NNW,333,7.0,11.0,77,0.00,,,0.42,,2013-10-05 16:43:00,
2013-10-05 10:53:00,33.0,27.0,30.41,NW,310,5.0,13.0,79,0.01,,,0.43,,2013-10-05 16:53:00,
2013-10-05 11:12:00,33.0,27.0,30.42,North,360,6.0,11.0,78,0.01,,,0.43,,2013-10-05 17:12:00,
2013-10-05 11:22:00,34.0,27.0,30.43,NNW,329,7.0,14.0,75,0.01,,,0.43,,2013-10-05 17:22:00,
2013-10-05 11:42:00,34.0,26.0,30.43,North,5,4.0,12.0,73,0.02,,,0.44,,2013-10-05 17:42:00,
2013-10-05 11:52:00,34.0,26.0,30.43,WNW,296,3.0,6.0,72,0.01,,,0.44,,2013-10-05 17:52:00,
2013-10-05 12:12:00,34.0,25.0,30.43,NW,306,1.0,6.0,70,0.01,,,0.44,,2013-10-05 18:12:00,
2013-10-05 12:21:00,35.0,26.0,30.43,NW,311,4.0,7.0,70,0.02,,,0.32,,2013-10-05 18:21:00,
2013-10-05 12:42:00,36.0,27.0,30.42,SSE,150,0.0,2.0,69,0.01,,,0.32,,2013-10-05 18:42:00,
2013-10-05 12:52:00,36.0,27.0,30.42,North,350,3.0,8.0,69,0.01,,,0.32,,2013-10-05 18:52:00,
2013-10-05 13:11:00,37.0,28.0,30.43,North,360,5.0,10.0,70,0.02,,,0.33,,2013-10-05 19:11:00,
2013-10-05 13:22:00,37.0,28.0,30.43,West,277,8.0,14.0,69,0.01,,,0.20,,2013-10-05 19:22:00,
2013-10-05 13:42:00,38.0,29.0,30.42,NNW,346,4.0,9.0,69,0.01,,,0.20,,2013-10-05 19:42:00,
2013-10-05 13:52:00,39.0,29.0,30.41,North,5,4.0,8.0,67,0.02,,,0.21,,2013-10-05 19:52:00,
2013-10-05 14:11:00,39.0,28.0,30.40,NW,325,3.0,6.0,64,0.01,,,0.21,,2013-10-05 20:11:00,
2013-10-05 14:22:00,39.0,27.0,30.40,SSE,150,0.0,5.0,63,0.01,,,0.15,,2013-10-05 20:22:00,
2013-10-05 14:42:00,40.0,28.0,30.39,NNW,340,2.0,7.0,63,0.02,,,0.16,,2013-10-05 20:42:00,
2013-10-05 14:52:00,40.0,28.0,30.39,NW,322,0.0,6.0,63,0.01,,,0.16,,2013-10-05 20:52:00,
2013-10-05 15:21:00,43.0,28.0,30.39,North,355,4.0,9.0,55,0.01,,,0.12,,2013-10-05 21:21:00,
2013-10-05 15:43:00,43.0,27.0,30.39,NW,315,7.0,13.0,52,0.00,,,0.12,,2013-10-05 21:43:00,
2013-10-05 15:54:00,43.0,27.0,30.40,NNW,337,8.0,17.0,52,0.00,,,0.12,,2013-10-05 21:54:00,
2013-10-05 16:12:00,42.0,25.0,30.40,NW,317,8.0,15.0,50,0.00,,,0.12,,2013-10-05 22:12:00,
2013-10-05 16:24:00,43.0,26.0,30.40,North,351,6.0,17.0,50,0.00,,,0.09,,2013-10-05 22:24:00,
2013-10-05 16:42:00,43.0,26.0,30.41,NNE,26,7.0,12.0,50,0.00,,,0.09,,2013-10-05 22:42:00,
2013-10-05 16:53:00,43.0,25.0,30.40,WNW,302,6.0,10.0,48,0.00,,,0.09,,2013-10-05 22:53:00,
2013-10-05 17:13:00,43.0,26.0,30.40,NW,305,4.0,10.0,50,0.00,,,0.09,,2013-10-05 23:13:00,
2013-10-05 17:22:00,43.0,26.0,30.41,NW,314,4.0,9.0,50,0.00,,,0.06,,2013-10-05 23:22:00,
2013-10-05 17:53:00,42.0,26.0,30.42,NNW,338,5.0,11.0,53,0.00,,,0.06,,2013-10-05 23:53:00,
2013-10-05 18:12:00,41.0,25.0,30.42,NNW,343,5.0,9.0,53,0.00,,,0.06,,2013-10-06 00:12:00,
2013-10-05 18:23:00,41.0,26.0,30.42,NW,307,4.0,8.0,55,0.00,,,0.06,,2013-10-06 00:23:00,
2013-10-05 18:43:00,39.0,25.0,30.42,NW,312,3.0,6.0,58,0.00,,,0.06,,2013-10-06 00:43:00,
2013-10-05 18:52:00,38.0,26.0,30.42,NW,309,2.0,6.0,61,0.00,,,0.06,,2013-10-06 00:52:00,
2013-10-05 19:11:00,37.0,26.0,30.43,NW,309,0.0,3.0,63,0.00,,,0.06,,2013-10-06 01:11:00,
2013-10-05 19:22:00,36.0,25.0,30.43,NW,308,2.0,4.0,64,0.00,,,0.06,,2013-10-06 01:22:00,
2013-10-05 19:42:00,34.0,25.0,30.44,WNW,297,2.0,5.0,68,0.00,,,0.06,,2013-10-06 01:42:00,
2013-10-05 19:52:00,34.0,25.0,30.45,WNW,286,2.0,5.0,70,0.00,,,0.06,,2013-10-06 01:52:00,
2013-10-05 20:11:00,33.0,25.0,30.45,West,276,2.0,4.0,72,0.00,,,0.06,,2013-10-06 02:11:00,
2013-10-05 20:21:00,32.0,25.0,30.45,South,180,2.0,6.0,74,0.00,,,0.06,,2013-10-06 02:21:00,
2013-10-05 20:42:00,31.0,25.0,30.44,SSW,194,2.0,6.0,77,0.00,,,0.06,,2013-10-06 02:42:00,
2013-10-05 20:52:00,31.0,25.0,30.44,SSW,196,1.0,4.0,78,0.00,,,0.06,,2013-10-06 02:52:00,
2013-10-05 21:12:00,31.0,25.0,30.45,SSW,196,0.0,3.0,79,0.00,,,0.06,,2013-10-06 03:12:00,
2013-10-05 21:22:00,30.0,25.0,30.45,SSW,196,0.0,1.0,80,0.00,,,0.06,,2013-10-06 03:22:00,
2013-10-05 21:44:00,30.0,25.0,30.46,SSW,196,0.0,0.0,81,0.00,,,0.06,,2013-10-06 03:44:00,
2013-10-05 21:54:00,29.0,24.0,30.47,SSW,196,0.0,0.0,82,0.00,,,0.06,,2013-10-06 03:54:00,
2013-10-05 22:13:00,29.0,25.0,30.47,SSW,197,0.0,1.0,84,0.00,,,0.06,,2013-10-06 04:13:00,
2013-10-05 22:23:00,28.0,24.0,30.47,SSW,196,0.0,3.0,84,0.00,,,0.06,,2013-10-06 04:23:00,
2013-10-05 22:44:00,28.0,24.0,30.46,SSW,196,0.0,3.0,86,0.00,,,0.06,,2013-10-06 04:44:00,
2013-10-05 22:54:00,28.0,25.0,30.45,SSW,192,2.0,4.0,87,0.00,,,0.06,,2013-10-06 04:54:00,
2013-10-05 23:13:00,28.0,24.0,30.45,SSW,203,1.0,4.0,86,0.00,,,0.06,,2013-10-06 05:13:00,
2013-10-05 23:22:00,28.0,24.0,30.44,SSW,207,0.0,2.0,86,0.00,,,0.06,,2013-10-06 05:22:00,
2013-10-05 23:42:00,28.0,24.0,30.45,SSW,208,0.0,1.0,86,0.00,,,0.06,,2013-10-06 05:42:00,
2013-10-05 23:52:00,27.0,23.0,30.45,SW,215,0.0,3.0,86,0.00,,,0.06,,2013-10-06 05:52:00,